Aérodrome :
LOGIN :

S'inscrire | Disclaimer

   EN    FR    IT 

 










Légende :    VFR   VFR Marginal   IFR   IFR Intensif   IFR Très Intensif
Visi : 
Plafond : 
>= 8 km
>= 3000ft
5 à 8 km
1000 à 3000 ft
1500m à 5 km
500 à 1000 ft
800 à 1500m
200 à 500 ft
< 800m
< 200 ft
Symboles :   Orages  Brouillard  Fortes neiges  Fortes précipitations  Vent > 20 kt
SIGMETs :   Divers  Orages  Givrage  Turbulence  Onde Orograph.  Cendres Volcan.







- Altitude de l'aérodrome : 65 ft
- Code IATA : PMO


LICJ - Palermo Punta Raisi

DERNIER METAR :
  • 250950Z 03006KT CAVOK 19/13 Q1018

METARs EXPIRÉS :
  • 250920Z 03006KT CAVOK 19/13 Q1018
  • 250850Z 01003KT CAVOK 19/13 Q1018
  • 250820Z 02005KT CAVOK 18/13 Q1018
  • 250750Z 34003KT 300V020 CAVOK 19/13 Q1018
  • 250720Z VRB02KT CAVOK 19/12 Q1018

TAF TAF LICJ
Valide du 25 à 06h jusqu'au 26 à 06h UTC


250500Z 2506/2606 VRB05KT CAVOK
BECMG 2508/2510 04014KT
BECMG 2517/2519 VRB04KT
Pas de NOTAMs connus pour ce terrain.
2 SIGMETs publiés pour la FIR Roma (LIRR) :
 
Turbulence forte
LIRR SIGMET 2 VALID 251000/251300 LIIB
LIRR ROMA FIR SEV TURB FCST S OF LINE N4121 E00944 - N3951 E01601 FL270/400 STNR WKN=
Turbulence forte
LIRR SIGMET 1 VALID 250614/251000 LIIB
LIRR ROMA FIR SEV TURB FCST S OF LINE N4121 E00944 - N3951 E01601 FL240/380 STNR NC=



MET'MAP, la Météo Aéronautique d'un coup d'oeil ! - Copyright ORBIFLY Décembre 2007 - Disclaimer

ORBIFLY MET'MAP TEAM :

Programmation & Développement : Alexandra Zaïnal
Conception & Développement : Baudouin d'Aumeries
Co-Programmation & Développement : Marc-Olivier Méhu
Soutien technique & logistique : Manuel Goepfert

Contact : metmap@orbifly.com




SOURCES & CREDITS :

   NOAA